createdAt,value
2023-02-17T00:00:02.426Z,10.98
2023-02-17T00:03:06.298Z,11.16
2023-02-17T00:06:11.943Z,11.06
2023-02-17T00:09:16.337Z,11.40
2023-02-17T00:12:20.211Z,11.33
2023-02-17T00:15:23.976Z,11.20
2023-02-17T00:18:27.997Z,10.97
2023-02-17T00:21:33.251Z,10.86
2023-02-17T00:24:40.635Z,10.94
2023-02-17T00:27:47.435Z,10.84
2023-02-17T00:30:50.779Z,10.92
2023-02-17T00:33:56.446Z,10.67
2023-02-17T00:37:00.420Z,10.43
2023-02-17T00:40:04.564Z,10.80
2023-02-17T00:43:11.276Z,10.88
2023-02-17T00:46:15.320Z,10.76
2023-02-17T00:49:21.787Z,10.71
2023-02-17T00:52:25.184Z,10.24
2023-02-17T00:55:29.984Z,10.36
2023-02-17T00:58:33.322Z,10.41
2023-02-17T01:01:37.689Z,10.28
2023-02-17T01:04:41.075Z,10.15
2023-02-17T01:07:45.504Z,10.60
2023-02-17T01:10:52.244Z,10.44
2023-02-17T01:13:57.232Z,10.41
2023-02-17T01:17:00.478Z,10.33
2023-02-17T01:20:05.430Z,10.15
2023-02-17T01:23:10.152Z,10.05
2023-02-17T01:26:19.086Z,10.36
2023-02-17T01:29:22.435Z,10.19
2023-02-17T01:32:25.718Z,10.61
2023-02-17T01:35:29.841Z,10.57
2023-02-17T01:38:33.596Z,10.61
2023-02-17T01:41:36.956Z,10.28
2023-02-17T01:45:19.009Z,10.37
2023-02-17T01:48:31.011Z,10.22
2023-02-17T01:51:36.870Z,9.98
2023-02-17T01:54:49.966Z,10.54
2023-02-17T01:57:56.127Z,10.57
2023-02-17T02:01:02.746Z,10.57
2023-02-17T02:04:09.711Z,10.80
2023-02-17T02:07:20.973Z,10.83
2023-02-17T02:10:24.601Z,10.39
2023-02-17T02:13:28.966Z,10.55
2023-02-17T02:17:04.911Z,10.03
2023-02-17T02:20:30.507Z,10.33
2023-02-17T02:23:57.406Z,10.54
2023-02-17T02:27:10.371Z,10.17
2023-02-17T02:30:35.581Z,10.22
2023-02-17T02:33:46.714Z,10.52
2023-02-17T02:37:22.888Z,10.34
2023-02-17T02:40:29.958Z,10.40
2023-02-17T02:43:35.064Z,10.27
2023-02-17T02:46:39.020Z,10.45
2023-02-17T02:49:45.082Z,10.29
2023-02-17T02:53:23.610Z,10.43
2023-02-17T02:56:47.799Z,10.50
2023-02-17T03:00:05.123Z,10.36
2023-02-17T03:03:37.907Z,10.48
2023-02-17T03:06:49.798Z,10.12
2023-02-17T03:09:56.254Z,10.53
2023-02-17T03:13:00.447Z,10.46
2023-02-17T03:16:05.168Z,10.28
2023-02-17T03:19:13.522Z,10.26
2023-02-17T03:22:22.957Z,10.20
2023-02-17T03:25:26.357Z,9.88
2023-02-17T03:28:32.002Z,10.07
2023-02-17T03:31:35.491Z,10.25
2023-02-17T03:34:39.448Z,10.56
2023-02-17T03:37:43.877Z,10.17
2023-02-17T03:40:47.561Z,10.19
2023-02-17T03:43:51.661Z,10.66
2023-02-17T03:46:55.599Z,10.58
2023-02-17T03:49:58.954Z,10.77
2023-02-17T03:53:03.397Z,10.64
2023-02-17T03:56:07.776Z,10.52
2023-02-17T03:59:12.596Z,10.44
2023-02-17T04:02:15.962Z,10.41
2023-02-17T04:05:19.817Z,10.55
2023-02-17T04:08:24.237Z,10.36
2023-02-17T04:11:27.652Z,10.35
2023-02-17T04:14:31.032Z,10.61
2023-02-17T04:17:36.286Z,10.51
2023-02-17T04:20:41.041Z,10.23
2023-02-17T04:23:44.322Z,10.57
2023-02-17T04:26:49.839Z,10.59
2023-02-17T04:29:43.832Z,10.55
2023-02-17T04:32:50.326Z,10.58
2023-02-17T04:35:54.992Z,9.91
2023-02-17T04:38:59.017Z,10.05
2023-02-17T04:42:02.195Z,9.89
2023-02-17T04:45:08.228Z,10.12
2023-02-17T04:48:11.558Z,9.97
2023-02-17T04:51:17.224Z,9.93
2023-02-17T04:54:20.545Z,9.90
2023-02-17T04:57:23.805Z,9.93
2023-02-17T05:00:27.334Z,9.84
2023-02-17T05:03:31.422Z,9.74
2023-02-17T05:06:35.756Z,9.80
2023-02-17T05:09:39.481Z,9.60
2023-02-17T05:12:42.744Z,9.57
2023-02-17T05:15:46.901Z,9.79
2023-02-17T05:18:50.339Z,9.60
2023-02-17T05:21:54.502Z,9.37
2023-02-17T05:24:58.955Z,9.62
2023-02-17T05:28:02.225Z,9.57
2023-02-17T05:31:06.275Z,9.10
2023-02-17T05:34:09.736Z,9.24
2023-02-17T05:37:13.047Z,9.31
2023-02-17T05:40:16.338Z,9.35
2023-02-17T05:43:22.612Z,9.37
2023-02-17T05:46:25.795Z,9.26
2023-02-17T05:49:29.052Z,9.23
2023-02-17T05:52:32.244Z,9.20
2023-02-17T05:55:36.469Z,9.40
2023-02-17T05:58:40.851Z,9.43
2023-02-17T06:01:45.258Z,9.13
2023-02-17T06:04:48.998Z,9.22
2023-02-17T06:07:53.006Z,9.15
2023-02-17T06:10:56.236Z,9.04
2023-02-17T06:13:59.689Z,8.95
2023-02-17T06:17:05.192Z,8.91
2023-02-17T06:20:09.258Z,8.87
2023-02-17T06:23:13.318Z,8.81
2023-02-17T06:26:16.640Z,8.87
2023-02-17T06:29:22.625Z,8.71
2023-02-17T06:32:27.439Z,8.71
2023-02-17T06:35:30.682Z,8.93
2023-02-17T06:38:34.821Z,8.42
2023-02-17T06:41:38.317Z,8.50
2023-02-17T06:44:41.531Z,8.62
2023-02-17T06:47:45.927Z,8.73
2023-02-17T06:50:50.529Z,8.67
2023-02-17T06:53:54.802Z,8.69
2023-02-17T06:57:01.684Z,8.58
2023-02-17T07:00:06.203Z,8.48
2023-02-17T07:03:11.707Z,8.34
2023-02-17T07:06:15.104Z,8.43
2023-02-17T07:09:18.441Z,8.50
2023-02-17T07:12:22.110Z,8.36
2023-02-17T07:15:26.093Z,8.55
2023-02-17T07:18:30.470Z,8.39
2023-02-17T07:21:33.990Z,8.38
2023-02-17T07:24:37.337Z,8.45
2023-02-17T07:27:40.493Z,8.45
2023-02-17T07:30:44.671Z,8.33
2023-02-17T07:33:48.971Z,8.39
2023-02-17T07:36:54.388Z,8.35
2023-02-17T07:39:58.512Z,8.27
2023-02-17T07:43:02.621Z,8.43
2023-02-17T07:46:06.950Z,8.33
2023-02-17T07:49:10.384Z,8.20
2023-02-17T07:52:13.571Z,8.14
2023-02-17T07:55:19.639Z,8.30
2023-02-17T07:58:23.083Z,8.23
2023-02-17T08:01:26.943Z,8.20
2023-02-17T08:04:30.796Z,8.07
2023-02-17T08:07:34.560Z,8.02
2023-02-17T08:10:46.291Z,7.92
2023-02-17T08:13:49.782Z,8.12
2023-02-17T08:16:55.538Z,7.93
2023-02-17T08:20:07.996Z,7.62
2023-02-17T08:23:11.769Z,7.58
2023-02-17T08:26:17.661Z,7.33
2023-02-17T08:29:21.211Z,7.29
2023-02-17T08:32:27.169Z,7.39
2023-02-17T08:35:30.419Z,7.10
2023-02-17T08:38:35.296Z,7.27
2023-02-17T08:41:39.843Z,7.09
2023-02-17T08:44:43.883Z,7.18
2023-02-17T08:47:49.519Z,6.93
2023-02-17T08:50:52.792Z,6.79
2023-02-17T08:53:59.425Z,6.33
2023-02-17T08:57:04.196Z,6.57
2023-02-17T09:00:10.015Z,6.43
2023-02-17T09:03:14.027Z,6.37
2023-02-17T09:06:17.602Z,6.38
2023-02-17T09:09:25.424Z,6.26
2023-02-17T09:12:28.776Z,6.18
2023-02-17T09:15:34.823Z,6.34
2023-02-17T09:18:38.571Z,6.26
2023-02-17T09:21:42.983Z,6.12
2023-02-17T09:24:49.600Z,6.25
2023-02-17T09:27:54.434Z,6.48
2023-02-17T09:30:58.101Z,6.20
2023-02-17T09:34:01.430Z,6.22
2023-02-17T09:37:05.932Z,5.90
2023-02-17T09:40:44.889Z,6.05
2023-02-17T09:43:48.816Z,5.70
2023-02-17T09:47:07.574Z,5.69
2023-02-17T09:50:15.390Z,5.53
2023-02-17T09:53:25.048Z,5.60
2023-02-17T09:56:39.142Z,5.62
2023-02-17T10:00:10.792Z,5.65
2023-02-17T10:03:26.477Z,5.31
2023-02-17T10:06:37.621Z,5.45
2023-02-17T10:09:51.573Z,5.37
2023-02-17T10:12:58.104Z,5.38
2023-02-17T10:16:08.387Z,5.18
2023-02-17T10:19:34.271Z,4.93
2023-02-17T10:22:38.045Z,5.26
2023-02-17T10:25:51.399Z,5.16
2023-02-17T10:29:01.940Z,4.97
2023-02-17T10:32:25.306Z,5.10
2023-02-17T10:35:50.974Z,5.14
2023-02-17T10:39:02.323Z,4.96
2023-02-17T10:42:07.395Z,4.67
2023-02-17T10:45:25.028Z,4.98
2023-02-17T10:48:44.973Z,5.00
2023-02-17T10:51:51.989Z,5.15
2023-02-17T10:55:06.573Z,4.75
2023-02-17T10:58:21.760Z,5.13
2023-02-17T11:01:25.245Z,4.96
2023-02-17T11:04:28.681Z,4.70
2023-02-17T11:07:42.291Z,4.71
2023-02-17T11:10:46.581Z,4.56
2023-02-17T11:14:07.570Z,4.36
2023-02-17T11:17:41.503Z,4.39
2023-02-17T11:20:45.212Z,4.48
2023-02-17T11:24:06.152Z,4.50
2023-02-17T11:27:11.741Z,4.56
2023-02-17T11:30:17.026Z,4.59
2023-02-17T11:33:31.172Z,4.32
2023-02-17T11:36:34.496Z,4.07
2023-02-17T11:39:57.323Z,3.87
2023-02-17T11:43:01.808Z,4.28
2023-02-17T11:46:26.467Z,4.29
2023-02-17T11:49:55.811Z,4.08
2023-02-17T11:53:22.060Z,3.89
2023-02-17T11:56:31.807Z,3.90
2023-02-17T12:00:06.211Z,3.99
2023-02-17T12:03:42.259Z,3.82
2023-02-17T12:07:06.264Z,3.82
2023-02-17T12:10:44.147Z,4.00
2023-02-17T12:14:13.583Z,3.79
2023-02-17T12:17:45.803Z,3.82
2023-02-17T12:20:57.298Z,3.60
2023-02-17T12:24:06.086Z,3.55
2023-02-17T12:27:36.730Z,3.66
2023-02-17T12:30:44.221Z,3.60
2023-02-17T12:34:07.169Z,3.82
2023-02-17T12:37:21.800Z,3.88
2023-02-17T12:40:46.885Z,3.80
2023-02-17T12:43:54.656Z,3.89
2023-02-17T12:47:00.769Z,3.45
2023-02-17T12:50:19.002Z,3.44
2023-02-17T12:53:37.145Z,3.39
2023-02-17T12:57:04.476Z,3.64
2023-02-17T13:00:16.878Z,3.64
2023-02-17T13:03:20.909Z,3.46
2023-02-17T13:06:39.786Z,3.62
2023-02-17T13:09:46.422Z,3.30
2023-02-17T13:13:13.281Z,3.44
2023-02-17T13:16:16.611Z,3.39
2023-02-17T13:19:34.343Z,3.19
2023-02-17T13:22:45.127Z,3.25
2023-02-17T13:26:22.615Z,3.26
2023-02-17T13:29:26.733Z,3.25
2023-02-17T13:32:40.033Z,3.05
2023-02-17T13:35:44.197Z,3.01
2023-02-17T13:39:27.112Z,3.08
2023-02-17T13:42:38.889Z,2.96
2023-02-17T13:45:46.667Z,2.92
2023-02-17T13:48:58.237Z,3.02
2023-02-17T13:52:24.897Z,2.94
2023-02-17T13:55:30.681Z,3.00
2023-02-17T13:58:35.428Z,3.10
2023-02-17T14:01:43.633Z,3.15
2023-02-17T14:04:47.482Z,2.98
2023-02-17T14:07:53.888Z,3.20
2023-02-17T14:10:58.739Z,3.36
2023-02-17T14:14:03.823Z,3.50
2023-02-17T14:17:27.877Z,3.21
2023-02-17T14:20:31.190Z,3.50
2023-02-17T14:23:47.650Z,3.52
2023-02-17T14:26:50.990Z,3.47
2023-02-17T14:29:54.278Z,3.42
2023-02-17T14:33:09.244Z,3.75
2023-02-17T14:36:14.986Z,3.72
2023-02-17T14:39:20.285Z,4.12
2023-02-17T14:42:23.540Z,3.63
2023-02-17T14:45:27.217Z,3.51
2023-02-17T14:48:30.462Z,3.77
2023-02-17T14:51:36.590Z,4.14
2023-02-17T14:54:40.838Z,4.04
2023-02-17T14:57:44.305Z,3.95
2023-02-17T15:00:48.624Z,4.09
2023-02-17T15:03:52.787Z,4.19
2023-02-17T15:06:56.040Z,4.26
2023-02-17T15:09:59.524Z,4.12
2023-02-17T15:13:02.826Z,3.93
2023-02-17T15:16:08.317Z,3.91
2023-02-17T15:19:13.579Z,4.07
2023-02-17T15:22:17.002Z,3.70
2023-02-17T15:25:22.054Z,3.90
2023-02-17T15:28:26.533Z,3.92
2023-02-17T15:31:32.014Z,4.11
2023-02-17T15:34:36.293Z,4.11
2023-02-17T15:37:40.238Z,3.96
2023-02-17T15:40:43.499Z,3.75
2023-02-17T15:43:48.705Z,4.02
2023-02-17T15:46:53.760Z,4.31
2023-02-17T15:49:59.059Z,4.97
2023-02-17T15:53:03.504Z,5.10
2023-02-17T15:56:16.560Z,4.88
2023-02-17T15:59:24.672Z,5.58
2023-02-17T16:02:27.872Z,5.25
2023-02-17T16:05:32.531Z,5.81
2023-02-17T16:08:36.123Z,5.18
2023-02-17T16:11:51.220Z,4.91
2023-02-17T16:14:58.649Z,5.46
2023-02-17T16:18:01.840Z,5.31
2023-02-17T16:21:05.886Z,4.82
2023-02-17T16:24:09.322Z,5.16
2023-02-17T16:27:17.421Z,4.91
2023-02-17T16:30:39.773Z,4.53
2023-02-17T16:33:46.579Z,5.04
2023-02-17T16:36:52.280Z,5.39
2023-02-17T16:39:55.614Z,4.82
2023-02-17T16:43:00.102Z,5.29
2023-02-17T16:46:05.293Z,5.73
2023-02-17T16:49:21.636Z,5.85
2023-02-17T16:52:27.788Z,5.47
2023-02-17T16:55:37.271Z,5.38
2023-02-17T16:58:43.814Z,5.60
2023-02-17T17:01:48.092Z,5.60
2023-02-17T17:04:52.505Z,6.15
2023-02-17T17:07:56.266Z,6.39
2023-02-17T17:10:59.475Z,6.92
2023-02-17T17:14:04.014Z,7.05
2023-02-17T17:17:08.066Z,6.01
2023-02-17T17:20:21.045Z,6.26
2023-02-17T17:23:24.416Z,5.94
2023-02-17T17:26:34.205Z,6.24
2023-02-17T17:29:46.045Z,5.81
2023-02-17T17:32:49.952Z,5.71
2023-02-17T17:35:57.072Z,6.18
2023-02-17T17:39:01.328Z,6.64
2023-02-17T17:42:04.641Z,7.01
2023-02-17T17:45:08.951Z,7.10
2023-02-17T17:48:17.517Z,7.52
2023-02-17T17:51:22.065Z,7.62
2023-02-17T17:54:25.884Z,7.50
2023-02-17T17:57:30.498Z,7.46
2023-02-17T18:00:34.674Z,7.67
2023-02-17T18:03:38.127Z,8.00
2023-02-17T18:06:46.034Z,8.54
2023-02-17T18:09:50.039Z,8.54
2023-02-17T18:12:53.415Z,7.80
2023-02-17T18:15:59.260Z,8.29
2023-02-17T18:19:04.408Z,8.03
2023-02-17T18:22:07.758Z,8.62
2023-02-17T18:25:11.505Z,9.06
2023-02-17T18:28:15.230Z,8.70
2023-02-17T18:31:22.278Z,8.60
2023-02-17T18:34:26.158Z,8.80
2023-02-17T18:37:29.502Z,8.62
2023-02-17T18:40:33.119Z,8.66
2023-02-17T18:43:36.995Z,8.87
2023-02-17T18:46:42.201Z,9.20
2023-02-17T18:49:47.712Z,8.87
2023-02-17T18:52:51.492Z,8.71
2023-02-17T18:55:54.704Z,8.67
2023-02-17T18:58:58.512Z,8.63
2023-02-17T19:02:06.405Z,8.11
2023-02-17T19:05:11.999Z,8.73
2023-02-17T19:08:15.260Z,8.46
2023-02-17T19:11:20.675Z,8.20
2023-02-17T19:14:23.953Z,8.53
2023-02-17T19:17:27.185Z,8.86
2023-02-17T19:20:31.609Z,8.99
2023-02-17T19:23:37.092Z,9.11
2023-02-17T19:26:40.277Z,9.13
2023-02-17T19:29:43.686Z,9.27
2023-02-17T19:32:47.363Z,9.09
2023-02-17T19:35:51.645Z,9.30
2023-02-17T19:38:57.059Z,9.35
2023-02-17T19:42:00.556Z,9.35
2023-02-17T19:45:04.594Z,9.65
2023-02-17T19:48:09.378Z,9.31
2023-02-17T19:51:14.112Z,9.66
2023-02-17T19:54:18.100Z,9.69
2023-02-17T19:57:21.360Z,9.93
2023-02-17T20:00:25.931Z,10.11
2023-02-17T20:03:29.124Z,9.63
2023-02-17T20:06:39.307Z,9.81
2023-02-17T20:09:43.854Z,9.97
2023-02-17T20:12:47.627Z,10.77
2023-02-17T20:15:59.323Z,10.16
2023-02-17T20:19:04.354Z,10.12
2023-02-17T20:22:08.822Z,9.88
2023-02-17T20:25:14.939Z,10.19
2023-02-17T20:28:18.208Z,10.15
2023-02-17T20:31:22.355Z,10.29
2023-02-17T20:34:35.063Z,10.03
2023-02-17T20:37:40.462Z,10.00
2023-02-17T20:40:44.182Z,10.13
2023-02-17T20:43:47.716Z,10.29
2023-02-17T20:46:53.170Z,10.08
2023-02-17T20:49:57.158Z,10.21
2023-02-17T20:53:01.065Z,10.41
2023-02-17T20:56:04.653Z,10.02
2023-02-17T20:59:09.778Z,9.82
2023-02-17T21:02:13.021Z,9.89
2023-02-17T21:05:16.333Z,9.94
2023-02-17T21:08:19.637Z,9.88
2023-02-17T21:11:24.726Z,9.90
2023-02-17T21:14:28.282Z,10.17
2023-02-17T21:17:32.625Z,10.08
2023-02-17T21:20:35.865Z,9.98
2023-02-17T21:23:43.652Z,9.88
2023-02-17T21:26:49.903Z,10.18
2023-02-17T21:29:53.229Z,9.87
2023-02-17T21:32:58.058Z,9.95
2023-02-17T21:36:06.106Z,9.98
2023-02-17T21:39:09.606Z,9.56
2023-02-17T21:42:15.547Z,9.62
2023-02-17T21:45:19.234Z,9.93
2023-02-17T21:48:24.805Z,10.21
2023-02-17T21:51:32.376Z,10.45
2023-02-17T21:54:36.794Z,10.39
2023-02-17T21:57:40.103Z,10.12
2023-02-17T22:00:44.162Z,10.38
2023-02-17T22:03:47.763Z,10.92
2023-02-17T22:06:57.866Z,11.40
2023-02-17T22:10:01.204Z,11.50
2023-02-17T22:13:04.505Z,11.57
2023-02-17T22:16:08.783Z,10.94
2023-02-17T22:19:21.026Z,10.59
2023-02-17T22:22:24.864Z,10.78
2023-02-17T22:25:28.224Z,10.70
2023-02-17T22:28:32.163Z,10.53
2023-02-17T22:31:35.824Z,10.58
2023-02-17T22:34:39.146Z,11.38
2023-02-17T22:37:42.508Z,13.00
2023-02-17T22:40:47.665Z,12.37
2023-02-17T22:43:52.930Z,11.59
2023-02-17T22:46:58.477Z,11.07
2023-02-17T22:50:01.766Z,13.02
2023-02-17T22:53:10.553Z,13.90
2023-02-17T22:56:14.237Z,13.88
2023-02-17T22:59:21.231Z,13.63
2023-02-17T23:02:24.487Z,12.70
2023-02-17T23:05:28.359Z,14.16
2023-02-17T23:08:32.457Z,14.65
2023-02-17T23:11:41.169Z,12.61
2023-02-17T23:14:46.921Z,12.72
2023-02-17T23:17:50.093Z,11.05
2023-02-17T23:20:54.269Z,10.41
2023-02-17T23:23:59.100Z,10.17
2023-02-17T23:27:03.276Z,9.86
2023-02-17T23:30:13.747Z,9.60
2023-02-17T23:33:18.694Z,9.40
2023-02-17T23:36:21.983Z,9.32
2023-02-17T23:39:26.477Z,9.48
2023-02-17T23:42:29.933Z,9.41
2023-02-17T23:45:34.957Z,9.15
2023-02-17T23:48:39.930Z,9.22
2023-02-17T23:51:43.550Z,9.07
2023-02-17T23:54:46.918Z,9.20
2023-02-17T23:57:50.178Z,9.17
